createdAt,value
2022-12-15T00:01:38.206Z,99448.41
2022-12-15T00:04:29.954Z,99447.69
2022-12-15T00:07:21.595Z,99438.81
2022-12-15T00:10:15.166Z,99440.50
2022-12-15T00:13:06.840Z,99439.31
2022-12-15T00:15:59.141Z,99450.03
2022-12-15T00:18:50.629Z,99436.41
2022-12-15T00:21:42.357Z,99439.41
2022-12-15T00:24:34.213Z,99440.72
2022-12-15T00:27:27.460Z,99438.72
2022-12-15T00:30:19.249Z,99450.38
2022-12-15T00:33:11.339Z,99439.47
2022-12-15T00:36:03.220Z,99455.84
2022-12-15T00:38:47.677Z,99454.47
2022-12-15T00:41:21.994Z,99467.25
2022-12-15T00:43:57.868Z,99472.19
2022-12-15T00:46:50.174Z,99461.25
2022-12-15T00:49:42.922Z,99478.59
2022-12-15T00:52:37.215Z,99472.63
2022-12-15T00:55:29.369Z,99463.72
2022-12-15T00:58:21.264Z,99468.66
2022-12-15T01:01:14.684Z,99466.50
2022-12-15T01:04:06.476Z,99458.09
2022-12-15T01:06:58.598Z,99461.16
2022-12-15T01:09:50.002Z,99466.56
2022-12-15T01:12:41.984Z,99472.50
2022-12-15T01:15:33.749Z,99471.78
2022-12-15T01:18:27.496Z,99478.75
2022-12-15T01:21:03.559Z,99482.09
2022-12-15T01:23:39.049Z,99476.88
2022-12-15T01:26:13.241Z,99490.00
2022-12-15T01:28:47.748Z,99490.97
2022-12-15T01:31:21.927Z,99487.62
2022-12-15T01:33:57.866Z,99488.09
2022-12-15T01:36:32.143Z,99481.78
2022-12-15T01:39:06.784Z,99478.16
2022-12-15T01:41:40.157Z,99475.03
2022-12-15T01:44:19.353Z,99483.81
2022-12-15T01:46:55.948Z,99485.47
2022-12-15T01:49:33.568Z,99486.06
2022-12-15T01:52:09.783Z,99484.59
2022-12-15T01:54:48.620Z,99485.88
2022-12-15T01:57:26.672Z,99490.72
2022-12-15T02:00:05.424Z,99486.62
2022-12-15T02:02:41.239Z,99488.59
2022-12-15T02:05:17.093Z,99483.59
2022-12-15T02:07:51.482Z,99481.84
2022-12-15T02:10:31.620Z,99482.16
2022-12-15T02:13:15.017Z,99487.22
2022-12-15T02:15:56.303Z,99492.00
2022-12-15T02:18:37.247Z,99493.62
2022-12-15T02:21:19.832Z,99495.91
2022-12-15T02:24:36.665Z,99491.44
2022-12-15T02:28:00.415Z,99490.22
2022-12-15T02:30:46.265Z,99494.03
2022-12-15T02:33:27.420Z,99491.59
2022-12-15T02:36:13.821Z,99493.91
2022-12-15T02:38:48.291Z,99484.09
2022-12-15T02:41:38.607Z,99473.72
2022-12-15T02:44:18.082Z,99484.44
2022-12-15T02:47:16.743Z,99487.28
2022-12-15T02:50:07.003Z,99486.09
2022-12-15T02:52:53.251Z,99490.06
2022-12-15T02:55:35.799Z,99494.88
2022-12-15T02:58:16.430Z,99505.06
2022-12-15T03:00:56.507Z,99500.97
2022-12-15T03:03:34.427Z,99491.06
2022-12-15T03:06:11.621Z,99486.78
2022-12-15T03:08:46.465Z,99490.19
2022-12-15T03:11:20.900Z,99504.59
2022-12-15T03:13:55.580Z,99498.94
2022-12-15T03:16:30.094Z,99496.66
2022-12-15T03:19:05.693Z,99505.84
2022-12-15T03:21:40.146Z,99506.97
2022-12-15T03:24:14.409Z,99510.59
2022-12-15T03:26:50.292Z,99509.50
2022-12-15T03:29:24.510Z,99518.38
2022-12-15T03:31:59.047Z,99524.16
2022-12-15T03:34:34.648Z,99514.66
2022-12-15T03:37:09.283Z,99522.50
2022-12-15T03:39:43.571Z,99531.16
2022-12-15T03:42:38.522Z,99520.44
2022-12-15T03:45:12.890Z,99530.22
2022-12-15T03:47:48.568Z,99523.91
2022-12-15T03:50:26.716Z,99527.78
2022-12-15T03:53:03.468Z,99539.84
2022-12-15T03:55:37.724Z,99546.19
2022-12-15T03:58:12.156Z,99546.53
2022-12-15T04:00:46.485Z,99556.22
2022-12-15T04:03:21.799Z,99555.25
2022-12-15T04:05:57.394Z,99561.84
2022-12-15T04:08:32.364Z,99579.66
2022-12-15T04:11:06.925Z,99572.50
2022-12-15T04:13:41.313Z,99568.81
2022-12-15T04:16:19.820Z,99577.00
2022-12-15T04:19:08.750Z,99586.62
2022-12-15T04:21:44.372Z,99598.19
2022-12-15T04:24:36.403Z,99592.84
2022-12-15T04:27:28.461Z,99609.38
2022-12-15T04:30:20.772Z,99612.22
2022-12-15T04:33:13.404Z,99606.97
2022-12-15T04:36:06.977Z,99618.41
2022-12-15T04:38:59.823Z,99620.84
2022-12-15T04:41:51.779Z,99610.84
2022-12-15T04:44:43.202Z,99605.16
2022-12-15T04:47:35.333Z,99605.06
2022-12-15T04:50:27.332Z,99615.03
2022-12-15T04:53:27.560Z,99611.53
2022-12-15T04:56:21.053Z,99604.63
2022-12-15T04:59:13.520Z,99603.47
2022-12-15T05:02:05.880Z,99620.22
2022-12-15T05:04:58.300Z,99626.44
2022-12-15T05:07:50.111Z,99626.94
2022-12-15T05:10:42.477Z,99630.22
2022-12-15T05:13:35.427Z,99628.63
2022-12-15T05:16:27.906Z,99625.66
2022-12-15T05:19:19.517Z,99630.22
2022-12-15T05:22:11.579Z,99637.09
2022-12-15T05:25:03.128Z,99649.41
2022-12-15T05:27:55.276Z,99652.94
2022-12-15T05:30:48.331Z,99658.72
2022-12-15T05:33:22.794Z,99670.22
2022-12-15T05:35:58.663Z,99674.97
2022-12-15T05:38:33.337Z,99667.22
2022-12-15T05:41:07.595Z,99656.78
2022-12-15T05:43:42.108Z,99657.34
2022-12-15T05:46:17.626Z,99667.41
2022-12-15T05:48:52.126Z,99666.34
2022-12-15T05:51:26.306Z,99673.63
2022-12-15T05:54:00.794Z,99682.41
2022-12-15T05:56:34.952Z,99687.38
2022-12-15T05:59:09.748Z,99692.97
2022-12-15T06:01:47.783Z,99660.56
2022-12-15T06:04:22.345Z,99662.03
2022-12-15T06:06:56.561Z,99676.88
2022-12-15T06:09:31.006Z,99663.16
2022-12-15T06:12:05.511Z,99675.75
2022-12-15T06:14:40.005Z,99690.09
2022-12-15T06:17:15.682Z,99696.19
2022-12-15T06:19:50.367Z,99708.59
2022-12-15T06:22:24.539Z,99719.50
2022-12-15T06:24:59.041Z,99724.19
2022-12-15T06:27:33.452Z,99728.78
2022-12-15T06:30:08.889Z,99740.50
2022-12-15T06:32:44.411Z,99751.25
2022-12-15T06:35:18.936Z,99760.84
2022-12-15T06:37:53.208Z,99765.50
2022-12-15T06:40:27.783Z,99735.72
2022-12-15T06:43:01.961Z,99732.06
2022-12-15T06:45:36.573Z,99751.97
2022-12-15T06:48:12.160Z,99765.94
2022-12-15T06:50:46.715Z,99764.81
2022-12-15T06:53:25.692Z,99785.56
2022-12-15T06:56:03.854Z,99786.53
2022-12-15T06:58:38.038Z,99797.50
2022-12-15T07:01:12.876Z,99790.53
2022-12-15T07:03:48.742Z,99810.06
2022-12-15T07:06:24.325Z,99817.47
2022-12-15T07:08:58.588Z,99825.97
2022-12-15T07:11:33.205Z,99838.81
2022-12-15T07:14:07.345Z,99834.81
2022-12-15T07:16:41.911Z,99825.50
2022-12-15T07:19:17.794Z,99834.34
2022-12-15T07:21:53.007Z,99840.00
2022-12-15T07:24:27.164Z,99841.16
2022-12-15T07:27:01.816Z,99828.34
2022-12-15T07:29:36.166Z,99819.13
2022-12-15T07:32:10.678Z,99815.06
2022-12-15T07:34:46.874Z,99829.19
2022-12-15T07:37:22.792Z,99837.09
2022-12-15T07:39:57.015Z,99837.22
2022-12-15T07:42:31.777Z,99841.66
2022-12-15T07:45:07.073Z,99842.56
2022-12-15T07:47:41.810Z,99844.91
2022-12-15T07:50:17.561Z,99845.94
2022-12-15T07:52:52.658Z,99843.03
2022-12-15T07:55:50.160Z,99842.97
2022-12-15T07:58:21.690Z,99841.81
2022-12-15T08:01:00.347Z,99844.56
2022-12-15T08:03:35.783Z,99845.97
2022-12-15T08:06:13.366Z,99847.22
2022-12-15T08:08:50.816Z,99844.28
2022-12-15T08:11:26.006Z,99848.19
2022-12-15T08:14:02.968Z,99862.06
2022-12-15T08:16:41.100Z,99872.19
2022-12-15T08:19:16.939Z,99877.91
2022-12-15T08:21:52.508Z,99877.50
2022-12-15T08:24:27.325Z,99881.56
2022-12-15T08:27:01.470Z,99883.75
2022-12-15T08:29:52.463Z,99882.22
2022-12-15T08:32:26.977Z,99888.06
2022-12-15T08:35:01.389Z,99894.75
2022-12-15T08:37:36.952Z,99897.38
2022-12-15T08:40:12.248Z,99893.84
2022-12-15T08:42:46.635Z,99910.81
2022-12-15T08:45:21.085Z,99911.28
2022-12-15T08:47:57.300Z,99916.44
2022-12-15T08:50:32.117Z,99911.16
2022-12-15T08:53:30.229Z,99925.50
2022-12-15T08:56:05.952Z,99916.44
2022-12-15T08:58:40.807Z,99908.34
2022-12-15T09:01:22.776Z,99917.44
2022-12-15T09:03:59.462Z,99922.84
2022-12-15T09:06:36.834Z,99940.25
2022-12-15T09:09:14.255Z,99929.59
2022-12-15T09:11:49.018Z,99928.34
2022-12-15T09:14:29.138Z,99929.41
2022-12-15T09:17:04.286Z,99939.69
2022-12-15T09:19:38.540Z,99943.53
2022-12-15T09:22:13.025Z,99943.53
2022-12-15T09:24:50.012Z,99935.34
2022-12-15T09:27:24.516Z,99941.38
2022-12-15T09:29:59.247Z,99935.91
2022-12-15T09:32:33.831Z,99937.50
2022-12-15T09:35:08.746Z,99934.47
2022-12-15T09:37:50.005Z,99914.47
2022-12-15T09:40:27.363Z,99920.59
2022-12-15T09:43:32.875Z,99933.34
2022-12-15T09:46:04.824Z,99936.00
2022-12-15T09:48:43.064Z,99917.16
2022-12-15T09:51:20.029Z,99922.97
2022-12-15T09:53:55.894Z,99914.28
2022-12-15T09:56:42.219Z,99911.25
2022-12-15T09:59:27.477Z,99897.94
2022-12-15T10:02:18.895Z,99885.38
2022-12-15T10:05:02.080Z,99889.69
2022-12-15T10:07:43.940Z,99900.66
2022-12-15T10:10:33.895Z,99915.31
2022-12-15T10:13:16.395Z,99906.53
2022-12-15T10:15:58.844Z,99903.41
2022-12-15T10:18:38.630Z,99912.59
2022-12-15T10:21:15.064Z,99908.50
2022-12-15T17:47:10.674Z,99886.66
2022-12-15T17:49:47.419Z,99886.66
2022-12-15T17:52:28.696Z,99869.81
2022-12-15T17:55:04.534Z,99861.09
2022-12-15T17:57:38.818Z,99873.75
2022-12-15T18:00:21.434Z,99875.06
2022-12-15T18:02:59.371Z,99887.81
2022-12-15T18:05:33.712Z,99894.41
2022-12-15T18:08:15.135Z,99903.28
2022-12-15T18:10:50.719Z,99907.59
2022-12-15T18:13:30.323Z,99908.91
2022-12-15T18:16:08.059Z,99910.63
2022-12-15T18:18:44.359Z,99910.81
2022-12-15T18:21:19.435Z,99897.06
2022-12-15T18:23:59.854Z,99901.59
2022-12-15T18:26:38.042Z,99903.72
2022-12-15T18:29:14.983Z,99902.19
2022-12-15T18:31:50.627Z,99892.50
2022-12-15T18:34:27.590Z,99899.91
2022-12-15T18:37:01.795Z,99906.16
2022-12-15T18:39:36.344Z,99905.25
2022-12-15T18:42:16.110Z,99894.28
2022-12-15T18:44:53.160Z,99888.44
2022-12-15T18:47:27.841Z,99889.88
2022-12-15T18:50:04.205Z,99878.72
2022-12-15T18:52:38.938Z,99876.75
2022-12-15T18:55:21.717Z,99892.47
2022-12-15T18:57:56.364Z,99889.38
2022-12-15T19:00:32.437Z,99884.66
2022-12-15T19:03:07.042Z,99892.03
2022-12-15T19:05:43.392Z,99884.59
2022-12-15T19:08:20.339Z,99884.78
2022-12-15T19:10:57.865Z,99893.22
2022-12-15T19:13:35.085Z,99872.28
2022-12-15T19:16:18.138Z,99892.88
2022-12-15T19:19:13.898Z,99873.81
2022-12-15T19:22:10.663Z,99872.97
2022-12-15T19:24:58.649Z,99867.59
2022-12-15T19:27:33.612Z,99844.69
2022-12-15T19:30:16.491Z,99827.53
2022-12-15T19:32:51.148Z,99833.09
2022-12-15T19:35:25.899Z,99824.38
2022-12-15T19:38:04.575Z,99819.81
2022-12-15T19:40:39.206Z,99840.25
2022-12-15T19:43:17.151Z,99838.56
2022-12-15T19:45:52.038Z,99843.69
2022-12-15T19:48:27.073Z,99840.06
2022-12-15T19:51:01.540Z,99828.16
2022-12-15T19:53:40.830Z,99841.41
2022-12-15T19:56:17.929Z,99832.69
2022-12-15T19:58:52.668Z,99836.16
2022-12-15T20:01:27.395Z,99841.19
2022-12-15T20:04:02.087Z,99829.19
2022-12-15T20:06:36.583Z,99813.09
2022-12-15T20:09:16.298Z,99831.41
2022-12-15T20:11:50.529Z,99817.06
2022-12-15T20:14:26.232Z,99822.97
2022-12-15T20:17:00.347Z,99813.25
2022-12-15T20:19:34.838Z,99786.09
2022-12-15T20:22:15.451Z,99792.34
2022-12-15T20:24:51.732Z,99803.91
2022-12-15T20:27:25.934Z,99810.16
2022-12-15T20:30:00.655Z,99819.03
2022-12-15T20:32:38.393Z,99804.59
2022-12-15T20:35:16.251Z,99785.13
2022-12-15T20:37:52.647Z,99785.03
2022-12-15T20:40:30.736Z,99779.34
2022-12-15T20:43:10.334Z,99768.41
2022-12-15T20:45:58.292Z,99773.63
2022-12-15T20:48:34.859Z,99774.31
2022-12-15T20:51:15.936Z,99778.28
2022-12-15T20:53:51.283Z,99775.22
2022-12-15T20:56:27.717Z,99778.78
2022-12-15T20:59:02.099Z,99788.03
2022-12-15T21:01:39.027Z,99762.91
2022-12-15T21:04:25.532Z,99761.72
2022-12-15T21:07:00.437Z,99756.78
2022-12-15T21:09:34.986Z,99747.72
2022-12-15T21:12:17.617Z,99748.84
2022-12-15T21:14:52.210Z,99750.09
2022-12-15T21:17:27.661Z,99737.41
2022-12-15T21:20:02.024Z,99742.16
2022-12-15T21:22:36.849Z,99753.88
2022-12-15T21:25:25.999Z,99746.03
2022-12-15T21:28:01.833Z,99745.91
2022-12-15T21:30:36.361Z,99749.09
2022-12-15T21:33:11.265Z,99749.66
2022-12-15T21:35:47.335Z,99749.59
2022-12-15T21:38:41.583Z,99746.12
2022-12-15T21:41:18.615Z,99743.19
2022-12-15T21:43:54.970Z,99729.41
2022-12-15T21:46:29.959Z,99727.94
2022-12-15T21:49:17.558Z,99726.41
2022-12-15T21:51:55.010Z,99726.28
2022-12-15T21:54:33.791Z,99716.66
2022-12-15T21:57:08.153Z,99717.78
2022-12-15T21:59:44.354Z,99707.09
2022-12-15T22:02:26.830Z,99712.59
2022-12-15T22:05:01.708Z,99710.97
2022-12-15T22:07:35.832Z,99707.69
2022-12-15T22:10:10.968Z,99698.44
2022-12-15T22:12:51.436Z,99685.16
2022-12-15T22:15:30.460Z,99698.31
2022-12-15T22:18:06.212Z,99700.47
2022-12-15T22:20:42.514Z,99694.41
2022-12-15T22:23:17.158Z,99701.50
2022-12-15T22:25:56.189Z,99696.53
2022-12-15T22:28:30.989Z,99690.16
2022-12-15T22:31:07.934Z,99685.69
2022-12-15T22:33:43.069Z,99680.25
2022-12-15T22:36:17.581Z,99677.22
2022-12-15T22:38:51.751Z,99680.75
2022-12-15T22:41:26.398Z,99669.81
2022-12-15T22:44:00.552Z,99675.47
2022-12-15T22:46:36.574Z,99682.97
2022-12-15T22:49:16.271Z,99671.22
2022-12-15T22:51:50.859Z,99675.38
2022-12-15T22:54:27.151Z,99677.62
2022-12-15T22:57:05.411Z,99679.91
2022-12-15T22:59:43.678Z,99674.41
2022-12-15T23:02:19.548Z,99672.87
2022-12-15T23:04:53.807Z,99672.03
2022-12-15T23:07:29.597Z,99671.19
2022-12-15T23:10:21.553Z,99670.50
2022-12-15T23:12:55.943Z,99665.06
2022-12-15T23:15:48.339Z,99663.34
2022-12-15T23:18:24.239Z,99651.66
2022-12-15T23:20:58.652Z,99652.91
2022-12-15T23:23:33.449Z,99643.50
2022-12-15T23:26:07.988Z,99638.72
2022-12-15T23:28:43.327Z,99638.81
2022-12-15T23:31:17.838Z,99626.25
2022-12-15T23:33:54.095Z,99634.06
2022-12-15T23:36:28.708Z,99629.72
2022-12-15T23:39:03.241Z,99617.34
2022-12-15T23:41:37.327Z,99594.09
2022-12-15T23:44:14.328Z,99581.37
2022-12-15T23:46:48.522Z,99580.19
2022-12-15T23:49:24.423Z,99577.47
2022-12-15T23:51:58.636Z,99581.19
2022-12-15T23:54:33.115Z,99585.38
2022-12-15T23:57:07.320Z,99585.72
2022-12-15T23:59:42.725Z,99579.84
